createdAt,value
2023-04-26T00:01:58.775Z,68.01
2023-04-26T00:04:25.636Z,66.76
2023-04-26T00:06:52.405Z,65.91
2023-04-26T00:09:22.051Z,66.36
2023-04-26T00:11:49.274Z,66.78
2023-04-26T00:14:15.884Z,66.65
2023-04-26T00:16:42.524Z,67.70
2023-04-26T00:19:10.018Z,67.89
2023-04-26T00:21:37.209Z,68.18
2023-04-26T00:24:05.661Z,67.92
2023-04-26T00:26:34.290Z,68.25
2023-04-26T00:29:02.022Z,68.35
2023-04-26T00:31:28.834Z,67.83
2023-04-26T00:33:55.883Z,68.71
2023-04-26T00:36:22.656Z,68.26
2023-04-26T00:38:49.337Z,68.52
2023-04-26T00:41:16.044Z,68.41
2023-04-26T00:43:42.613Z,68.53
2023-04-26T00:46:09.716Z,69.59
2023-04-26T00:48:37.441Z,68.18
2023-04-26T00:51:05.757Z,68.14
2023-04-26T00:53:34.420Z,69.13
2023-04-26T00:56:02.055Z,68.83
2023-04-26T00:58:29.776Z,68.72
2023-04-26T01:00:56.803Z,68.58
2023-04-26T01:03:24.106Z,69.21
2023-04-26T01:05:51.116Z,69.07
2023-04-26T01:08:20.836Z,69.60
2023-04-26T01:10:48.886Z,69.21
2023-04-26T01:13:16.497Z,69.72
2023-04-26T01:15:47.150Z,68.30
2023-04-26T01:18:14.995Z,69.02
2023-04-26T01:20:42.991Z,67.41
2023-04-26T01:23:11.534Z,68.36
2023-04-26T01:25:39.257Z,68.08
2023-04-26T01:28:06.148Z,68.58
2023-04-26T01:30:32.856Z,68.16
2023-04-26T01:33:02.899Z,69.38
2023-04-26T01:35:29.543Z,68.76
2023-04-26T01:37:56.598Z,67.77
2023-04-26T01:40:23.173Z,69.85
2023-04-26T01:42:49.987Z,68.49
2023-04-26T01:45:17.527Z,68.56
2023-04-26T01:48:02.712Z,69.64
2023-04-26T01:50:32.054Z,68.93
2023-04-26T01:52:58.777Z,69.21
2023-04-26T01:55:25.396Z,68.83
2023-04-26T01:57:52.147Z,69.33
2023-04-26T02:00:19.393Z,68.40
2023-04-26T02:02:49.282Z,69.37
2023-04-26T02:05:16.164Z,69.05
2023-04-26T02:07:43.032Z,68.89
2023-04-26T02:10:09.994Z,68.12
2023-04-26T02:12:36.690Z,68.33
2023-04-26T02:15:03.690Z,68.22
2023-04-26T02:17:30.760Z,68.17
2023-04-26T02:19:58.674Z,68.59
2023-04-26T02:22:26.480Z,69.03
2023-04-26T02:24:54.610Z,68.52
2023-04-26T02:27:27.809Z,68.35
2023-04-26T02:29:54.720Z,68.69
2023-04-26T02:32:21.291Z,68.76
2023-04-26T02:34:48.017Z,69.50
2023-04-26T02:37:14.649Z,69.06
2023-04-26T02:39:41.863Z,69.29
2023-04-26T02:42:10.852Z,69.29
2023-04-26T02:44:39.476Z,70.60
2023-04-26T02:47:06.241Z,70.54
2023-04-26T02:49:33.029Z,70.39
2023-04-26T02:51:59.696Z,69.61
2023-04-26T02:54:26.430Z,68.78
2023-04-26T02:56:53.187Z,69.80
2023-04-26T02:59:21.474Z,70.66
2023-04-26T03:01:48.139Z,70.00
2023-04-26T03:04:16.354Z,69.33
2023-04-26T03:06:44.630Z,69.87
2023-04-26T03:09:14.654Z,69.61
2023-04-26T03:11:41.995Z,69.67
2023-04-26T03:14:08.665Z,69.96
2023-04-26T03:16:42.996Z,70.75
2023-04-26T03:19:10.154Z,70.63
2023-04-26T03:21:38.431Z,72.29
2023-04-26T03:24:06.300Z,70.97
2023-04-26T03:26:33.396Z,70.54
2023-04-26T03:29:00.170Z,70.72
2023-04-26T03:31:26.764Z,71.37
2023-04-26T03:33:53.521Z,70.91
2023-04-26T03:36:20.708Z,71.21
2023-04-26T03:38:47.385Z,71.50
2023-04-26T03:41:15.602Z,71.74
2023-04-26T03:43:42.444Z,72.49
2023-04-26T03:46:11.056Z,71.88
2023-04-26T03:48:37.810Z,71.84
2023-04-26T03:51:04.658Z,71.53
2023-04-26T03:53:32.062Z,71.87
2023-04-26T03:55:58.879Z,73.10
2023-04-26T03:58:26.326Z,71.98
2023-04-26T04:00:56.276Z,71.46
2023-04-26T04:03:23.386Z,71.69
2023-04-26T04:05:51.725Z,72.18
2023-04-26T04:08:18.641Z,71.80
2023-04-26T04:10:45.669Z,70.41
2023-04-26T04:13:12.614Z,71.20
2023-04-26T04:15:39.475Z,71.42
2023-04-26T04:18:06.407Z,71.58
2023-04-26T04:20:33.279Z,71.29
2023-04-26T04:23:02.070Z,71.67
2023-04-26T04:25:28.949Z,71.97
2023-04-26T04:27:58.768Z,71.38
2023-04-26T04:30:26.302Z,70.84
2023-04-26T04:32:53.646Z,70.49
2023-04-26T04:35:22.986Z,71.44
2023-04-26T04:37:50.201Z,71.25
2023-04-26T04:40:17.088Z,71.38
2023-04-26T04:42:46.268Z,70.80
2023-04-26T04:45:14.877Z,71.45
2023-04-26T04:47:42.415Z,70.52
2023-04-26T04:50:09.977Z,70.70
2023-04-26T04:52:37.658Z,70.23
2023-04-26T04:55:04.976Z,70.10
2023-04-26T04:57:33.139Z,69.52
2023-04-26T05:00:07.010Z,68.89
2023-04-26T05:02:34.515Z,69.13
2023-04-26T05:05:02.089Z,68.67
2023-04-26T05:07:29.253Z,68.02
2023-04-26T05:09:56.237Z,65.54
2023-04-26T05:12:23.677Z,61.60
2023-04-26T05:14:50.886Z,57.81
2023-04-26T05:17:18.267Z,55.96
2023-04-26T05:19:45.881Z,53.54
2023-04-26T05:22:21.190Z,54.11
2023-04-26T05:24:48.869Z,55.53
2023-04-26T05:27:15.918Z,56.55
2023-04-26T05:29:51.031Z,57.98
2023-04-26T05:32:39.543Z,59.44
2023-04-26T05:35:14.151Z,58.78
2023-04-26T05:37:41.754Z,58.08
2023-04-26T05:40:10.116Z,57.98
2023-04-26T05:42:37.540Z,55.09
2023-04-26T05:45:08.408Z,52.30
2023-04-26T05:47:35.222Z,49.63
2023-04-26T05:50:02.228Z,47.38
2023-04-26T05:52:29.194Z,47.54
2023-04-26T05:54:56.722Z,45.80
2023-04-26T05:57:23.545Z,45.56
2023-04-26T05:59:50.514Z,47.24
2023-04-26T06:02:17.897Z,47.70
2023-04-26T06:04:44.808Z,48.21
2023-04-26T06:07:16.044Z,46.05
2023-04-26T06:09:43.436Z,46.20
2023-04-26T06:12:10.098Z,45.90
2023-04-26T06:14:42.204Z,47.91
2023-04-26T06:17:14.491Z,49.79
2023-04-26T06:19:42.497Z,49.10
2023-04-26T06:22:09.178Z,50.37
2023-04-26T06:24:35.873Z,49.06
2023-04-26T06:27:02.515Z,48.30
2023-04-26T06:29:33.686Z,47.10
2023-04-26T06:32:00.797Z,48.01
2023-04-26T06:34:28.976Z,48.89
2023-04-26T06:36:55.851Z,48.33
2023-04-26T06:39:24.839Z,48.58
2023-04-26T06:41:52.606Z,50.64
2023-04-26T06:44:27.645Z,48.99
2023-04-26T06:47:01.535Z,49.52
2023-04-26T06:49:28.429Z,49.96
2023-04-26T06:51:55.029Z,49.59
2023-04-26T06:54:21.943Z,51.47
2023-04-26T06:56:48.534Z,50.78
2023-04-26T06:59:15.433Z,50.54
2023-04-26T07:01:42.458Z,48.94
2023-04-26T07:04:10.955Z,48.84
2023-04-26T07:06:39.185Z,50.65
2023-04-26T07:09:05.869Z,50.35
2023-04-26T07:11:32.746Z,49.99
2023-04-26T07:13:59.475Z,47.87
2023-04-26T07:16:27.006Z,47.50
2023-04-26T07:18:53.992Z,46.87
2023-04-26T07:21:20.486Z,48.68
2023-04-26T07:23:47.293Z,48.17
2023-04-26T07:26:14.091Z,48.37
2023-04-26T07:28:42.384Z,48.05
2023-04-26T07:31:10.916Z,44.67
2023-04-26T07:33:38.564Z,44.73
2023-04-26T07:36:06.262Z,45.18
2023-04-26T07:38:32.932Z,44.97
2023-04-26T07:41:01.307Z,45.86
2023-04-26T07:43:28.644Z,46.55
2023-04-26T07:45:55.315Z,44.72
2023-04-26T07:48:22.039Z,44.20
2023-04-26T07:50:48.723Z,46.40
2023-04-26T07:53:15.417Z,48.04
2023-04-26T07:55:42.672Z,46.52
2023-04-26T07:58:12.522Z,44.36
2023-04-26T08:00:40.051Z,41.89
2023-04-26T08:03:08.262Z,42.82
2023-04-26T08:05:35.224Z,42.95
2023-04-26T08:08:02.287Z,41.65
2023-04-26T08:10:29.028Z,42.72
2023-04-26T08:12:57.365Z,43.38
2023-04-26T08:15:24.115Z,43.43
2023-04-26T08:17:53.272Z,42.33
2023-04-26T08:20:20.837Z,41.92
2023-04-26T08:22:49.349Z,41.93
2023-04-26T08:25:16.245Z,41.85
2023-04-26T08:27:45.000Z,41.58
2023-04-26T08:30:13.438Z,41.65
2023-04-26T08:32:41.228Z,42.84
2023-04-26T08:35:09.606Z,43.77
2023-04-26T08:37:36.697Z,44.10
2023-04-26T08:40:04.481Z,44.45
2023-04-26T08:42:32.688Z,44.93
2023-04-26T08:45:02.913Z,44.13
2023-04-26T08:47:44.774Z,43.85
2023-04-26T08:50:16.379Z,43.21
2023-04-26T08:52:45.286Z,44.42
2023-04-26T08:55:15.015Z,44.34
2023-04-26T08:57:43.591Z,43.96
2023-04-26T09:00:16.252Z,44.27
2023-04-26T09:02:48.087Z,43.23
2023-04-26T09:05:16.295Z,42.66
2023-04-26T09:07:46.168Z,41.60
2023-04-26T09:10:23.597Z,40.50
2023-04-26T09:12:54.462Z,40.09
2023-04-26T09:15:23.073Z,41.70
2023-04-26T09:17:51.698Z,42.38
2023-04-26T09:20:26.050Z,41.93
2023-04-26T09:23:03.655Z,42.36
2023-04-26T09:25:32.351Z,41.75
2023-04-26T09:28:00.393Z,42.98
2023-04-26T09:30:28.319Z,44.16
2023-04-26T09:33:04.107Z,44.17
2023-04-26T09:35:36.002Z,45.08
2023-04-26T09:38:22.954Z,44.79
2023-04-26T09:40:51.023Z,45.30
2023-04-26T09:43:22.360Z,45.60
2023-04-26T09:45:53.526Z,45.00
2023-04-26T09:48:34.686Z,46.17
2023-04-26T09:51:04.100Z,45.06
2023-04-26T09:53:37.070Z,45.11
2023-04-26T09:56:14.575Z,44.17
2023-04-26T09:58:44.373Z,44.84
2023-04-26T10:01:14.062Z,43.02
2023-04-26T10:03:43.644Z,43.85
2023-04-26T10:06:12.297Z,42.93
2023-04-26T10:08:39.272Z,43.39
2023-04-26T10:11:13.143Z,43.24
2023-04-26T10:13:44.886Z,43.82
2023-04-26T10:16:12.180Z,43.86
2023-04-26T10:18:39.014Z,42.86
2023-04-26T10:21:17.117Z,43.32
2023-04-26T10:23:44.679Z,43.76
2023-04-26T10:26:50.014Z,43.59
2023-04-26T10:29:18.630Z,43.31
2023-04-26T10:32:09.010Z,42.55
2023-04-26T10:34:37.289Z,42.40
2023-04-26T10:37:16.233Z,42.47
2023-04-26T10:39:48.803Z,41.58
2023-04-26T10:42:30.835Z,39.49
2023-04-26T10:45:00.340Z,40.08
2023-04-26T10:47:35.936Z,39.68
2023-04-26T10:50:07.435Z,39.45
2023-04-26T10:52:35.323Z,39.46
2023-04-26T10:55:02.818Z,39.82
2023-04-26T10:57:50.864Z,38.56
2023-04-26T11:00:23.211Z,39.55
2023-04-26T11:02:52.387Z,39.84
2023-04-26T11:05:55.771Z,38.00
2023-04-26T11:08:32.069Z,38.64
2023-04-26T11:11:07.011Z,38.06
2023-04-26T11:13:36.515Z,38.66
2023-04-26T11:16:05.848Z,37.62
2023-04-26T11:18:35.298Z,37.61
2023-04-26T11:21:02.514Z,37.10
2023-04-26T11:23:30.474Z,37.24
2023-04-26T11:26:04.095Z,37.65
2023-04-26T11:28:35.006Z,37.83
2023-04-26T11:31:04.147Z,37.89
2023-04-26T11:33:31.540Z,37.51
2023-04-26T11:36:01.247Z,37.30
2023-04-26T11:38:28.833Z,37.84
2023-04-26T11:40:58.635Z,37.43
2023-04-26T11:43:36.658Z,38.40
2023-04-26T11:46:05.106Z,38.88
2023-04-26T11:48:34.095Z,38.19
2023-04-26T11:51:03.786Z,38.07
2023-04-26T11:53:38.744Z,38.76
2023-04-26T11:56:20.397Z,38.43
2023-04-26T11:58:52.000Z,38.00
2023-04-26T12:01:24.852Z,37.72
2023-04-26T12:03:57.841Z,38.68
2023-04-26T12:06:32.936Z,38.42
2023-04-26T12:09:02.843Z,38.75
2023-04-26T12:11:29.463Z,38.18
2023-04-26T12:13:58.468Z,37.84
2023-04-26T12:16:26.820Z,36.26
2023-04-26T12:18:55.334Z,36.66
2023-04-26T12:21:23.213Z,36.78
2023-04-26T12:23:50.409Z,36.95
2023-04-26T12:26:17.842Z,36.31
2023-04-26T12:28:44.532Z,34.75
2023-04-26T12:31:11.401Z,36.22
2023-04-26T12:33:38.307Z,36.49
2023-04-26T12:36:09.586Z,35.79
2023-04-26T12:38:36.632Z,34.71
2023-04-26T12:41:03.576Z,34.66
2023-04-26T12:43:30.377Z,35.75
2023-04-26T12:45:57.108Z,35.17
2023-04-26T12:48:23.819Z,35.25
2023-04-26T12:50:51.401Z,35.02
2023-04-26T12:53:21.015Z,33.78
2023-04-26T12:55:48.391Z,33.51
2023-04-26T12:58:15.210Z,33.04
2023-04-26T13:00:43.965Z,33.28
2023-04-26T13:03:14.409Z,32.88
2023-04-26T13:05:42.929Z,34.04
2023-04-26T13:08:09.579Z,35.84
2023-04-26T13:10:42.574Z,35.89
2023-04-26T13:13:09.298Z,35.46
2023-04-26T13:15:36.541Z,36.24
2023-04-26T13:18:03.255Z,34.79
2023-04-26T13:20:31.018Z,34.31
2023-04-26T13:22:58.310Z,33.38
2023-04-26T13:25:24.974Z,34.82
2023-04-26T13:27:53.649Z,34.38
2023-04-26T13:30:20.423Z,34.62
2023-04-26T13:32:47.312Z,34.53
2023-04-26T13:35:14.123Z,34.26
2023-04-26T13:37:41.914Z,34.64
2023-04-26T13:40:11.396Z,34.56
2023-04-26T13:42:39.097Z,34.42
2023-04-26T13:45:09.488Z,33.95
2023-04-26T13:47:37.060Z,33.12
2023-04-26T13:50:04.362Z,32.48
2023-04-26T13:52:31.302Z,32.81
2023-04-26T13:54:57.983Z,32.63
2023-04-26T13:57:24.638Z,33.16
2023-04-26T13:59:51.308Z,34.65
2023-04-26T14:02:18.208Z,34.33
2023-04-26T14:04:45.250Z,34.61
2023-04-26T14:07:12.651Z,34.56
2023-04-26T14:09:39.273Z,34.02
2023-04-26T14:12:08.411Z,34.22
2023-04-26T14:14:36.678Z,35.27
2023-04-26T14:17:03.563Z,35.84
2023-04-26T14:19:30.244Z,35.97
2023-04-26T14:21:57.716Z,35.77
2023-04-26T14:24:24.486Z,36.41
2023-04-26T14:26:51.493Z,35.31
2023-04-26T14:29:19.844Z,35.72
2023-04-26T14:31:47.313Z,35.83
2023-04-26T14:34:13.988Z,36.36
2023-04-26T14:36:46.546Z,36.46
2023-04-26T14:39:13.947Z,35.91
2023-04-26T14:41:41.277Z,34.87
2023-04-26T14:44:07.945Z,34.75
2023-04-26T14:46:36.024Z,34.69
2023-04-26T14:49:02.803Z,34.06
2023-04-26T14:51:29.648Z,32.91
2023-04-26T14:53:56.413Z,34.57
2023-04-26T14:56:23.739Z,33.97
2023-04-26T14:58:50.481Z,34.70
2023-04-26T15:01:17.390Z,34.41
2023-04-26T15:03:44.211Z,34.50
2023-04-26T15:06:11.150Z,34.11
2023-04-26T15:08:39.180Z,35.03
2023-04-26T15:11:05.801Z,34.66
2023-04-26T15:13:33.144Z,34.74
2023-04-26T15:16:07.872Z,34.73
2023-04-26T15:18:35.351Z,34.83
2023-04-26T15:21:02.217Z,34.08
2023-04-26T15:23:28.841Z,33.93
2023-04-26T15:25:55.450Z,32.99
2023-04-26T15:28:22.548Z,33.53
2023-04-26T15:30:50.504Z,33.62
2023-04-26T15:33:17.621Z,32.99
2023-04-26T15:35:44.347Z,32.84
2023-04-26T15:38:11.135Z,33.89
2023-04-26T15:40:38.383Z,34.56
2023-04-26T15:43:05.256Z,34.28
2023-04-26T15:45:32.017Z,34.32
2023-04-26T15:48:00.231Z,35.38
2023-04-26T15:50:37.344Z,34.97
2023-04-26T15:53:04.932Z,34.54
2023-04-26T15:55:35.033Z,34.73
2023-04-26T15:58:02.225Z,33.66
2023-04-26T16:00:29.065Z,33.89
2023-04-26T16:02:56.258Z,33.37
2023-04-26T16:05:23.068Z,33.84
2023-04-26T16:07:52.524Z,34.27
2023-04-26T16:10:19.500Z,34.11
2023-04-26T16:12:46.625Z,34.64
2023-04-26T16:15:14.628Z,35.09
2023-04-26T16:17:41.542Z,35.78
2023-04-26T16:20:10.031Z,36.32
2023-04-26T16:22:39.109Z,36.57
2023-04-26T16:25:08.523Z,37.10
2023-04-26T16:27:35.669Z,36.82
2023-04-26T16:30:02.658Z,36.64
2023-04-26T16:32:30.688Z,36.53
2023-04-26T16:35:02.562Z,36.20
2023-04-26T16:37:29.140Z,36.24
2023-04-26T16:39:56.431Z,36.88
2023-04-26T16:42:23.274Z,37.29
2023-04-26T16:44:49.912Z,36.83
2023-04-26T16:47:16.485Z,37.11
2023-04-26T16:49:49.871Z,37.25
2023-04-26T16:52:50.586Z,37.76
2023-04-26T16:55:24.200Z,38.66
2023-04-26T16:57:55.766Z,38.92
2023-04-26T17:00:37.399Z,39.94
2023-04-26T17:03:07.537Z,39.48
2023-04-26T17:06:02.731Z,39.30
2023-04-26T17:08:29.739Z,39.64
2023-04-26T17:10:56.506Z,39.60
2023-04-26T17:17:25.104Z,39.56
2023-04-26T17:19:55.562Z,39.41
2023-04-26T17:23:12.885Z,39.42
2023-04-26T17:25:45.640Z,39.28
2023-04-26T17:28:14.147Z,39.38
2023-04-26T17:30:40.944Z,38.91
2023-04-26T17:33:09.174Z,39.54
2023-04-26T17:35:36.398Z,39.83
2023-04-26T17:38:03.487Z,39.91
2023-04-26T17:40:31.576Z,40.34
2023-04-26T17:42:58.467Z,40.01
2023-04-26T17:45:25.540Z,40.55
2023-04-26T17:47:56.194Z,40.52
2023-04-26T17:50:25.705Z,40.46
2023-04-26T17:52:54.954Z,40.33
2023-04-26T17:55:21.910Z,40.94
2023-04-26T17:57:52.020Z,41.27
2023-04-26T18:00:19.531Z,41.68
2023-04-26T18:02:46.560Z,41.54
2023-04-26T18:05:19.731Z,42.18
2023-04-26T18:07:54.042Z,42.81
2023-04-26T18:10:20.975Z,43.08
2023-04-26T18:12:51.942Z,42.60
2023-04-26T18:21:31.916Z,43.04
2023-04-26T18:24:00.628Z,43.13
2023-04-26T18:26:28.256Z,43.17
2023-04-26T18:28:57.847Z,42.35
2023-04-26T18:31:27.805Z,42.11
2023-04-26T18:34:03.231Z,42.34
2023-04-26T18:36:32.828Z,42.99
2023-04-26T18:39:00.998Z,43.32
2023-04-26T18:41:27.950Z,44.27
2023-04-26T18:43:54.689Z,44.41
2023-04-26T18:46:21.768Z,44.43
2023-04-26T18:48:48.653Z,44.85
2023-04-26T18:51:15.636Z,44.67
2023-04-26T18:53:43.632Z,45.22
2023-04-26T18:56:10.345Z,44.81
2023-04-26T18:58:39.236Z,44.99
2023-04-26T19:01:06.111Z,44.86
2023-04-26T19:03:33.048Z,44.56
2023-04-26T19:05:59.733Z,44.85
2023-04-26T19:08:26.584Z,45.29
2023-04-26T19:10:53.344Z,45.64
2023-04-26T19:13:20.546Z,46.19
2023-04-26T19:15:47.704Z,46.47
2023-04-26T19:18:14.328Z,46.56
2023-04-26T19:20:41.271Z,46.48
2023-04-26T19:23:07.861Z,45.70
2023-04-26T19:25:34.757Z,46.58
2023-04-26T19:28:01.650Z,46.84
2023-04-26T19:30:31.606Z,46.51
2023-04-26T19:32:58.162Z,46.23
2023-04-26T19:35:24.970Z,46.36
2023-04-26T19:37:51.823Z,47.23
2023-04-26T19:40:18.683Z,47.32
2023-04-26T19:42:45.294Z,47.54
2023-04-26T19:45:11.940Z,47.38
2023-04-26T19:47:41.140Z,47.21
2023-04-26T19:50:08.247Z,47.05
2023-04-26T19:52:35.114Z,47.61
2023-04-26T19:55:01.986Z,47.43
2023-04-26T19:57:28.644Z,47.25
2023-04-26T19:59:55.732Z,47.15
2023-04-26T20:02:22.319Z,47.82
2023-04-26T20:04:49.016Z,47.71
2023-04-26T20:07:15.947Z,47.23
2023-04-26T20:09:42.750Z,47.33
2023-04-26T20:12:09.626Z,47.66
2023-04-26T20:14:37.384Z,48.12
2023-04-26T20:17:04.291Z,48.54
2023-04-26T20:19:30.998Z,48.35
2023-04-26T20:21:59.984Z,48.90
2023-04-26T20:24:29.408Z,48.64
2023-04-26T20:26:56.836Z,48.71
2023-04-26T20:29:24.047Z,49.58
2023-04-26T20:31:51.296Z,49.87
2023-04-26T20:34:18.239Z,49.37
2023-04-26T20:36:44.826Z,49.98
2023-04-26T20:39:13.604Z,50.21
2023-04-26T20:41:42.465Z,50.47
2023-04-26T20:44:09.400Z,51.70
2023-04-26T20:46:38.308Z,51.28
2023-04-26T20:49:06.631Z,50.91
2023-04-26T20:51:36.632Z,51.94
2023-04-26T20:54:03.565Z,51.96
2023-04-26T20:56:31.728Z,52.66
2023-04-26T20:58:58.381Z,52.76
2023-04-26T21:01:27.310Z,52.83
2023-04-26T21:03:54.304Z,52.78
2023-04-26T21:06:22.578Z,52.50
2023-04-26T21:08:49.172Z,52.39
2023-04-26T21:11:16.710Z,52.93
2023-04-26T21:13:48.097Z,52.99
2023-04-26T21:16:16.444Z,53.10
2023-04-26T21:18:43.045Z,53.38
2023-04-26T21:21:09.897Z,53.54
2023-04-26T21:23:36.623Z,53.63
2023-04-26T21:26:03.540Z,54.33
2023-04-26T21:28:30.237Z,53.95
2023-04-26T21:31:04.795Z,54.27
2023-04-26T21:33:32.283Z,54.79
2023-04-26T21:36:00.454Z,55.00
2023-04-26T21:38:27.675Z,54.46
2023-04-26T21:40:54.336Z,54.90
2023-04-26T21:43:23.578Z,55.66
2023-04-26T21:45:52.384Z,55.02
2023-04-26T21:48:24.323Z,55.19
2023-04-26T21:50:51.174Z,55.14
2023-04-26T21:53:18.693Z,55.46
2023-04-26T21:55:52.675Z,56.31
2023-04-26T21:58:23.174Z,56.38
2023-04-26T22:00:53.254Z,55.99
2023-04-26T22:03:20.257Z,56.65
2023-04-26T22:05:48.904Z,56.88
2023-04-26T22:08:15.500Z,58.05
2023-04-26T22:10:44.497Z,57.09
2023-04-26T22:13:11.817Z,56.82
2023-04-26T22:15:39.102Z,58.46
2023-04-26T22:18:05.813Z,57.55
2023-04-26T22:20:34.951Z,58.11
2023-04-26T22:23:04.004Z,58.22
2023-04-26T22:25:31.534Z,58.85
2023-04-26T22:27:58.254Z,58.08
2023-04-26T22:30:26.143Z,59.28
2023-04-26T22:32:58.404Z,58.76
2023-04-26T22:35:26.882Z,59.01
2023-04-26T22:37:54.010Z,58.58
2023-04-26T22:40:20.991Z,59.29
2023-04-26T22:42:47.649Z,58.53
2023-04-26T22:45:14.570Z,58.85
2023-04-26T22:47:44.588Z,59.50
2023-04-26T22:50:14.109Z,60.03
2023-04-26T22:52:43.247Z,59.45
2023-04-26T22:55:10.266Z,60.14
2023-04-26T22:57:37.533Z,60.73
2023-04-26T23:00:06.348Z,61.25
2023-04-26T23:02:33.059Z,61.25
2023-04-26T23:05:00.073Z,60.42
2023-04-26T23:07:26.964Z,60.97
2023-04-26T23:09:56.229Z,61.96
2023-04-26T23:12:23.772Z,61.42
2023-04-26T23:14:50.565Z,62.47
2023-04-26T23:17:20.301Z,61.82
2023-04-26T23:19:47.478Z,61.16
2023-04-26T23:22:15.584Z,61.70
2023-04-26T23:24:42.133Z,61.70
2023-04-26T23:27:08.902Z,61.98
2023-04-26T23:29:35.621Z,62.00
2023-04-26T23:32:03.516Z,62.55
2023-04-26T23:34:31.672Z,62.34
2023-04-26T23:36:58.881Z,62.55
2023-04-26T23:39:35.975Z,62.40
2023-04-26T23:42:03.751Z,62.88
2023-04-26T23:44:30.508Z,62.44
2023-04-26T23:46:57.260Z,63.68
2023-04-26T23:49:24.404Z,63.10
2023-04-26T23:51:51.205Z,63.70
2023-04-26T23:54:17.954Z,63.15
2023-04-26T23:56:44.469Z,63.45
2023-04-26T23:59:11.351Z,63.88
